sensor_id;sensor_type;location;lat;lon;timestamp;pressure;altitude;pressure_sealevel;temperature;humidity
59417;BME280;45222;52.458;20.914;2024-03-06T00:00:31;101011.16;;;5.79;95.98
59417;BME280;45222;52.458;20.914;2024-03-06T00:04:39;101011.54;;;5.78;95.72
59417;BME280;45222;52.458;20.914;2024-03-06T00:08:27;101017.67;;;5.79;96.08
59417;BME280;45222;52.458;20.914;2024-03-06T00:12:15;101018.50;;;5.83;95.99
59417;BME280;45222;52.458;20.914;2024-03-06T00:16:03;101018.61;;;5.87;95.67
59417;BME280;45222;52.458;20.914;2024-03-06T00:19:51;101018.77;;;5.87;95.83
59417;BME280;45222;52.458;20.914;2024-03-06T00:23:38;101021.15;;;5.92;95.64
59417;BME280;45222;52.458;20.914;2024-03-06T00:27:26;101018.58;;;5.98;95.74
59417;BME280;45222;52.458;20.914;2024-03-06T00:31:14;101022.05;;;6.01;95.46
59417;BME280;45222;52.458;20.914;2024-03-06T00:35:02;101026.39;;;5.95;95.34
59417;BME280;45222;52.458;20.914;2024-03-06T00:38:50;101024.75;;;5.89;95.01
59417;BME280;45222;52.458;20.914;2024-03-06T00:42:39;101024.80;;;5.86;95.11
59417;BME280;45222;52.458;20.914;2024-03-06T00:46:27;101030.99;;;5.85;94.97
59417;BME280;45222;52.458;20.914;2024-03-06T00:50:15;101029.94;;;5.84;95.29
59417;BME280;45222;52.458;20.914;2024-03-06T00:54:04;101033.41;;;5.88;95.39
59417;BME280;45222;52.458;20.914;2024-03-06T00:57:52;101037.82;;;5.88;95.42
59417;BME280;45222;52.458;20.914;2024-03-06T01:01:40;101034.58;;;5.82;95.49
59417;BME280;45222;52.458;20.914;2024-03-06T01:05:28;101042.09;;;5.77;95.57
59417;BME280;45222;52.458;20.914;2024-03-06T01:09:15;101042.33;;;5.73;95.65
59417;BME280;45222;52.458;20.914;2024-03-06T01:13:03;101044.99;;;5.72;95.74
59417;BME280;45222;52.458;20.914;2024-03-06T01:16:50;101044.64;;;5.72;95.76
59417;BME280;45222;52.458;20.914;2024-03-06T01:20:38;101052.90;;;5.73;96.29
59417;BME280;45222;52.458;20.914;2024-03-06T01:24:26;101058.50;;;5.76;96.56
59417;BME280;45222;52.458;20.914;2024-03-06T01:28:14;101059.21;;;5.76;96.63
59417;BME280;45222;52.458;20.914;2024-03-06T01:32:02;101063.67;;;5.74;96.54
59417;BME280;45222;52.458;20.914;2024-03-06T01:35:51;101068.79;;;5.74;96.48
59417;BME280;45222;52.458;20.914;2024-03-06T01:39:39;101067.17;;;5.76;96.62
59417;BME280;45222;52.458;20.914;2024-03-06T01:43:27;101070.09;;;5.80;96.62
59417;BME280;45222;52.458;20.914;2024-03-06T01:47:15;101070.42;;;5.81;96.63
59417;BME280;45222;52.458;20.914;2024-03-06T01:51:03;101073.38;;;5.84;96.55
59417;BME280;45222;52.458;20.914;2024-03-06T01:54:52;101078.14;;;5.84;96.47
59417;BME280;45222;52.458;20.914;2024-03-06T01:58:40;101081.49;;;5.84;96.14
59417;BME280;45222;52.458;20.914;2024-03-06T02:02:29;101079.58;;;5.83;96.37
59417;BME280;45222;52.458;20.914;2024-03-06T02:06:18;101080.98;;;5.83;96.50
59417;BME280;45222;52.458;20.914;2024-03-06T02:10:08;101087.14;;;5.85;96.43
59417;BME280;45222;52.458;20.914;2024-03-06T02:13:58;101084.83;;;5.86;96.39
59417;BME280;45222;52.458;20.914;2024-03-06T02:17:46;101088.56;;;5.84;96.27
59417;BME280;45222;52.458;20.914;2024-03-06T02:21:34;101085.09;;;5.80;96.25
59417;BME280;45222;52.458;20.914;2024-03-06T02:25:21;101086.66;;;5.81;96.09
59417;BME280;45222;52.458;20.914;2024-03-06T02:29:10;101084.59;;;5.79;95.85
59417;BME280;45222;52.458;20.914;2024-03-06T02:32:58;101086.85;;;5.80;96.05
59417;BME280;45222;52.458;20.914;2024-03-06T02:36:45;101090.41;;;5.78;95.97
59417;BME280;45222;52.458;20.914;2024-03-06T02:40:33;101087.13;;;5.74;96.07
59417;BME280;45222;52.458;20.914;2024-03-06T02:44:21;101086.86;;;5.70;95.73
59417;BME280;45222;52.458;20.914;2024-03-06T02:48:09;101085.82;;;5.68;95.74
59417;BME280;45222;52.458;20.914;2024-03-06T02:51:56;101085.52;;;5.66;95.35
59417;BME280;45222;52.458;20.914;2024-03-06T02:55:44;101085.80;;;5.59;95.30
59417;BME280;45222;52.458;20.914;2024-03-06T02:59:31;101090.29;;;5.54;95.25
59417;BME280;45222;52.458;20.914;2024-03-06T03:03:19;101090.90;;;5.49;95.47
59417;BME280;45222;52.458;20.914;2024-03-06T03:07:07;101090.27;;;5.44;95.29
59417;BME280;45222;52.458;20.914;2024-03-06T03:10:56;101094.55;;;5.41;95.15
59417;BME280;45222;52.458;20.914;2024-03-06T03:14:44;101102.41;;;5.35;95.03
59417;BME280;45222;52.458;20.914;2024-03-06T03:18:32;101105.30;;;5.31;95.14
59417;BME280;45222;52.458;20.914;2024-03-06T03:22:19;101107.29;;;5.26;95.01
59417;BME280;45222;52.458;20.914;2024-03-06T03:26:07;101109.45;;;5.23;95.23
59417;BME280;45222;52.458;20.914;2024-03-06T03:29:56;101108.76;;;5.23;94.93
59417;BME280;45222;52.458;20.914;2024-03-06T03:33:44;101107.84;;;5.24;94.83
59417;BME280;45222;52.458;20.914;2024-03-06T03:37:32;101113.27;;;5.27;94.77
59417;BME280;45222;52.458;20.914;2024-03-06T03:41:23;101110.99;;;5.27;94.72
59417;BME280;45222;52.458;20.914;2024-03-06T03:45:12;101114.86;;;5.27;94.63
59417;BME280;45222;52.458;20.914;2024-03-06T03:48:59;101115.29;;;5.23;94.45
59417;BME280;45222;52.458;20.914;2024-03-06T03:52:47;101118.19;;;5.17;94.19
59417;BME280;45222;52.458;20.914;2024-03-06T03:56:45;101122.48;;;5.12;94.19
59417;BME280;45222;52.458;20.914;2024-03-06T04:00:32;101122.70;;;5.09;94.27
59417;BME280;45222;52.458;20.914;2024-03-06T04:04:20;101122.85;;;5.11;94.41
59417;BME280;45222;52.458;20.914;2024-03-06T04:08:08;101123.32;;;5.15;94.58
59417;BME280;45222;52.458;20.914;2024-03-06T04:11:55;101124.20;;;5.16;94.35
59417;BME280;45222;52.458;20.914;2024-03-06T04:15:43;101129.54;;;5.12;94.18
59417;BME280;45222;52.458;20.914;2024-03-06T04:19:32;101129.02;;;5.09;94.10
59417;BME280;45222;52.458;20.914;2024-03-06T04:23:19;101131.69;;;5.09;93.90
59417;BME280;45222;52.458;20.914;2024-03-06T04:27:07;101133.29;;;5.07;93.72
59417;BME280;45222;52.458;20.914;2024-03-06T04:30:55;101138.30;;;5.02;93.78
59417;BME280;45222;52.458;20.914;2024-03-06T04:34:42;101138.59;;;4.93;93.68
59417;BME280;45222;52.458;20.914;2024-03-06T04:38:30;101141.81;;;4.90;93.44
59417;BME280;45222;52.458;20.914;2024-03-06T04:42:18;101141.47;;;4.89;93.64
59417;BME280;45222;52.458;20.914;2024-03-06T04:46:06;101146.39;;;4.89;93.72
59417;BME280;45222;52.458;20.914;2024-03-06T04:49:59;101153.30;;;4.87;93.51
59417;BME280;45222;52.458;20.914;2024-03-06T04:53:48;101155.88;;;4.79;92.85
59417;BME280;45222;52.458;20.914;2024-03-06T04:57:36;101155.95;;;4.71;92.61
59417;BME280;45222;52.458;20.914;2024-03-06T05:01:23;101160.27;;;4.66;92.76
59417;BME280;45222;52.458;20.914;2024-03-06T05:05:11;101157.98;;;4.62;92.78
59417;BME280;45222;52.458;20.914;2024-03-06T05:08:59;101166.14;;;4.58;92.53
59417;BME280;45222;52.458;20.914;2024-03-06T05:12:46;101164.23;;;4.56;92.43
59417;BME280;45222;52.458;20.914;2024-03-06T05:16:34;101167.77;;;4.54;92.27
59417;BME280;45222;52.458;20.914;2024-03-06T05:20:22;101168.69;;;4.52;92.32
59417;BME280;45222;52.458;20.914;2024-03-06T05:24:09;101172.92;;;4.50;92.21
59417;BME280;45222;52.458;20.914;2024-03-06T05:27:57;101178.60;;;4.47;92.03
59417;BME280;45222;52.458;20.914;2024-03-06T05:31:45;101187.42;;;4.45;91.86
59417;BME280;45222;52.458;20.914;2024-03-06T05:35:32;101186.20;;;4.44;91.74
59417;BME280;45222;52.458;20.914;2024-03-06T05:39:20;101186.92;;;4.43;91.66
59417;BME280;45222;52.458;20.914;2024-03-06T05:43:08;101191.67;;;4.42;91.71
59417;BME280;45222;52.458;20.914;2024-03-06T05:46:55;101197.69;;;4.39;91.60
59417;BME280;45222;52.458;20.914;2024-03-06T05:50:43;101200.18;;;4.37;91.29
59417;BME280;45222;52.458;20.914;2024-03-06T05:54:31;101201.94;;;4.37;91.05
59417;BME280;45222;52.458;20.914;2024-03-06T05:58:21;101206.88;;;4.37;91.08
59417;BME280;45222;52.458;20.914;2024-03-06T06:02:09;101209.86;;;4.37;91.00
59417;BME280;45222;52.458;20.914;2024-03-06T06:05:57;101212.70;;;4.35;90.83
59417;BME280;45222;52.458;20.914;2024-03-06T06:09:45;101217.30;;;4.33;90.53
59417;BME280;45222;52.458;20.914;2024-03-06T06:13:36;101222.07;;;4.31;90.38
59417;BME280;45222;52.458;20.914;2024-03-06T06:17:25;101229.64;;;4.31;90.34
59417;BME280;45222;52.458;20.914;2024-03-06T06:21:13;101231.20;;;4.34;90.28
59417;BME280;45222;52.458;20.914;2024-03-06T06:25:01;101234.90;;;4.34;89.94
59417;BME280;45222;52.458;20.914;2024-03-06T06:28:50;101234.92;;;4.32;89.81
59417;BME280;45222;52.458;20.914;2024-03-06T06:32:37;101240.53;;;4.35;90.05
59417;BME280;45222;52.458;20.914;2024-03-06T06:36:26;101237.52;;;4.38;89.65
59417;BME280;45222;52.458;20.914;2024-03-06T06:40:15;101243.14;;;4.38;89.47
59417;BME280;45222;52.458;20.914;2024-03-06T06:44:03;101244.58;;;4.35;89.35
59417;BME280;45222;52.458;20.914;2024-03-06T06:47:51;101248.30;;;4.33;89.25
59417;BME280;45222;52.458;20.914;2024-03-06T06:51:39;101249.68;;;4.35;89.52
59417;BME280;45222;52.458;20.914;2024-03-06T06:55:27;101252.80;;;4.41;89.63
59417;BME280;45222;52.458;20.914;2024-03-06T06:59:15;101258.92;;;4.47;89.53
59417;BME280;45222;52.458;20.914;2024-03-06T07:03:03;101268.95;;;4.48;88.93
59417;BME280;45222;52.458;20.914;2024-03-06T07:06:51;101270.57;;;4.45;88.30
59417;BME280;45222;52.458;20.914;2024-03-06T07:10:39;101273.02;;;4.44;88.23
59417;BME280;45222;52.458;20.914;2024-03-06T07:14:26;101276.89;;;4.46;88.45
59417;BME280;45222;52.458;20.914;2024-03-06T07:18:14;101277.05;;;4.48;88.31
59417;BME280;45222;52.458;20.914;2024-03-06T07:22:02;101277.04;;;4.48;87.63
59417;BME280;45222;52.458;20.914;2024-03-06T07:25:49;101282.54;;;4.43;86.83
59417;BME280;45222;52.458;20.914;2024-03-06T07:29:37;101288.90;;;4.42;87.01
59417;BME280;45222;52.458;20.914;2024-03-06T07:33:25;101291.14;;;4.47;87.02
59417;BME280;45222;52.458;20.914;2024-03-06T07:37:12;101295.86;;;4.51;86.64
59417;BME280;45222;52.458;20.914;2024-03-06T07:41:01;101298.98;;;4.58;86.82
59417;BME280;45222;52.458;20.914;2024-03-06T07:44:48;101299.59;;;4.67;86.49
59417;BME280;45222;52.458;20.914;2024-03-06T07:48:36;101304.43;;;4.79;86.57
59417;BME280;45222;52.458;20.914;2024-03-06T07:52:24;101309.73;;;4.96;86.39
59417;BME280;45222;52.458;20.914;2024-03-06T07:56:12;101314.73;;;5.06;85.88
59417;BME280;45222;52.458;20.914;2024-03-06T07:59:59;101318.08;;;5.07;84.68
59417;BME280;45222;52.458;20.914;2024-03-06T08:03:46;101317.04;;;5.04;84.41
59417;BME280;45222;52.458;20.914;2024-03-06T08:07:32;101320.62;;;4.99;83.78
59417;BME280;45222;52.458;20.914;2024-03-06T08:11:19;101320.29;;;4.97;83.82
59417;BME280;45222;52.458;20.914;2024-03-06T08:15:10;101324.59;;;4.91;83.40
59417;BME280;45222;52.458;20.914;2024-03-06T08:18:58;101329.73;;;4.87;83.86
59417;BME280;45222;52.458;20.914;2024-03-06T08:22:46;101334.36;;;4.82;83.27
59417;BME280;45222;52.458;20.914;2024-03-06T08:26:33;101334.55;;;4.80;83.18
59417;BME280;45222;52.458;20.914;2024-03-06T08:30:20;101340.20;;;4.78;83.32
59417;BME280;45222;52.458;20.914;2024-03-06T08:34:06;101343.10;;;4.70;81.90
59417;BME280;45222;52.458;20.914;2024-03-06T08:37:53;101345.98;;;4.61;82.00
59417;BME280;45222;52.458;20.914;2024-03-06T08:41:39;101346.17;;;4.60;82.54
59417;BME280;45222;52.458;20.914;2024-03-06T08:45:27;101348.94;;;4.67;82.61
59417;BME280;45222;52.458;20.914;2024-03-06T08:49:14;101350.46;;;4.74;82.31
59417;BME280;45222;52.458;20.914;2024-03-06T08:53:00;101349.69;;;4.83;82.55
59417;BME280;45222;52.458;20.914;2024-03-06T08:56:48;101356.83;;;4.93;81.99
59417;BME280;45222;52.458;20.914;2024-03-06T09:00:39;101361.00;;;4.98;80.91
59417;BME280;45222;52.458;20.914;2024-03-06T09:04:25;101361.22;;;4.94;79.98
59417;BME280;45222;52.458;20.914;2024-03-06T09:08:12;101365.63;;;4.93;79.95
59417;BME280;45222;52.458;20.914;2024-03-06T09:11:59;101366.30;;;4.97;79.68
59417;BME280;45222;52.458;20.914;2024-03-06T09:15:46;101369.29;;;4.99;78.96
59417;BME280;45222;52.458;20.914;2024-03-06T09:19:33;101372.04;;;5.05;78.66
59417;BME280;45222;52.458;20.914;2024-03-06T09:23:19;101375.14;;;5.12;78.19
59417;BME280;45222;52.458;20.914;2024-03-06T09:27:06;101377.37;;;5.20;77.49
59417;BME280;45222;52.458;20.914;2024-03-06T09:30:53;101378.36;;;5.25;77.51
59417;BME280;45222;52.458;20.914;2024-03-06T09:34:40;101379.73;;;5.30;76.36
59417;BME280;45222;52.458;20.914;2024-03-06T09:38:27;101378.09;;;5.35;76.51
59417;BME280;45222;52.458;20.914;2024-03-06T09:42:13;101377.09;;;5.47;76.08
59417;BME280;45222;52.458;20.914;2024-03-06T09:46:01;101385.09;;;5.56;75.95
59417;BME280;45222;52.458;20.914;2024-03-06T09:49:49;101385.16;;;5.66;75.18
59417;BME280;45222;52.458;20.914;2024-03-06T09:53:36;101388.40;;;5.75;75.18
59417;BME280;45222;52.458;20.914;2024-03-06T09:57:24;101385.36;;;5.92;75.04
59417;BME280;45222;52.458;20.914;2024-03-06T10:01:12;101391.44;;;6.02;72.93
59417;BME280;45222;52.458;20.914;2024-03-06T10:04:59;101395.30;;;6.04;73.44
59417;BME280;45222;52.458;20.914;2024-03-06T10:08:46;101404.04;;;6.12;72.68
59417;BME280;45222;52.458;20.914;2024-03-06T10:12:35;101405.61;;;6.13;71.64
59417;BME280;45222;52.458;20.914;2024-03-06T10:16:22;101410.41;;;6.10;72.25
59417;BME280;45222;52.458;20.914;2024-03-06T10:20:20;101414.42;;;6.14;72.93
59417;BME280;45222;52.458;20.914;2024-03-06T10:24:21;101416.95;;;6.08;70.83
59417;BME280;45222;52.458;20.914;2024-03-06T10:28:11;101413.86;;;6.03;71.42
59417;BME280;45222;52.458;20.914;2024-03-06T10:31:59;101418.20;;;6.08;72.14
59417;BME280;45222;52.458;20.914;2024-03-06T10:35:47;101422.73;;;6.14;71.43
59417;BME280;45222;52.458;20.914;2024-03-06T10:39:35;101421.84;;;6.15;70.92
59417;BME280;45222;52.458;20.914;2024-03-06T10:43:26;101426.97;;;6.13;70.57
59417;BME280;45222;52.458;20.914;2024-03-06T10:47:14;101426.16;;;6.08;70.97
59417;BME280;45222;52.458;20.914;2024-03-06T10:51:02;101424.58;;;6.07;70.46
59417;BME280;45222;52.458;20.914;2024-03-06T10:54:50;101431.48;;;6.07;69.48
59417;BME280;45222;52.458;20.914;2024-03-06T10:58:38;101431.31;;;6.06;69.78
59417;BME280;45222;52.458;20.914;2024-03-06T11:02:28;101428.15;;;6.02;67.97
59417;BME280;45222;52.458;20.914;2024-03-06T11:06:16;101426.03;;;6.02;68.82
59417;BME280;45222;52.458;20.914;2024-03-06T11:10:03;101422.70;;;6.03;68.41
59417;BME280;45222;52.458;20.914;2024-03-06T11:13:52;101420.53;;;6.06;68.04
59417;BME280;45222;52.458;20.914;2024-03-06T11:17:40;101420.55;;;6.03;67.53
59417;BME280;45222;52.458;20.914;2024-03-06T11:21:34;101418.27;;;6.02;67.95
59417;BME280;45222;52.458;20.914;2024-03-06T11:30:07;101426.63;;;6.13;67.68
59417;BME280;45222;52.458;20.914;2024-03-06T11:34:01;101424.11;;;6.16;67.45
59417;BME280;45222;52.458;20.914;2024-03-06T11:37:51;101423.04;;;6.30;67.55
59417;BME280;45222;52.458;20.914;2024-03-06T11:41:50;101415.88;;;6.61;68.05
59417;BME280;45222;52.458;20.914;2024-03-06T11:45:44;101419.45;;;7.03;67.08
59417;BME280;45222;52.458;20.914;2024-03-06T11:49:32;101413.89;;;7.38;65.09
59417;BME280;45222;52.458;20.914;2024-03-06T11:53:20;101414.52;;;7.78;63.47
59417;BME280;45222;52.458;20.914;2024-03-06T11:57:08;101413.16;;;8.18;63.27
59417;BME280;45222;52.458;20.914;2024-03-06T12:00:56;101419.22;;;8.33;60.72
59417;BME280;45222;52.458;20.914;2024-03-06T12:04:43;101422.58;;;8.09;60.16
59417;BME280;45222;52.458;20.914;2024-03-06T12:08:29;101431.01;;;7.86;61.32
59417;BME280;45222;52.458;20.914;2024-03-06T12:12:16;101427.75;;;7.63;60.45
59417;BME280;45222;52.458;20.914;2024-03-06T12:16:06;101424.56;;;7.44;61.06
59417;BME280;45222;52.458;20.914;2024-03-06T12:19:56;101425.18;;;7.29;61.05
59417;BME280;45222;52.458;20.914;2024-03-06T12:23:42;101425.04;;;7.28;61.44
59417;BME280;45222;52.458;20.914;2024-03-06T12:27:29;101426.84;;;7.26;61.10
59417;BME280;45222;52.458;20.914;2024-03-06T12:31:16;101426.10;;;7.18;60.56
59417;BME280;45222;52.458;20.914;2024-03-06T12:35:03;101428.88;;;7.10;61.27
59417;BME280;45222;52.458;20.914;2024-03-06T12:38:56;101427.59;;;7.13;61.38
59417;BME280;45222;52.458;20.914;2024-03-06T12:42:44;101427.00;;;7.06;60.64
59417;BME280;45222;52.458;20.914;2024-03-06T12:46:31;101429.25;;;6.99;61.23
59417;BME280;45222;52.458;20.914;2024-03-06T12:50:18;101432.06;;;6.89;60.69
59417;BME280;45222;52.458;20.914;2024-03-06T12:54:05;101431.17;;;6.78;60.90
59417;BME280;45222;52.458;20.914;2024-03-06T12:57:52;101431.42;;;6.73;61.37
59417;BME280;45222;52.458;20.914;2024-03-06T13:01:38;101436.25;;;6.70;61.47
59417;BME280;45222;52.458;20.914;2024-03-06T13:05:25;101439.39;;;6.72;62.56
59417;BME280;45222;52.458;20.914;2024-03-06T13:09:12;101441.30;;;6.75;62.14
59417;BME280;45222;52.458;20.914;2024-03-06T13:12:59;101443.89;;;6.78;62.64
59417;BME280;45222;52.458;20.914;2024-03-06T13:16:45;101447.74;;;6.81;62.48
59417;BME280;45222;52.458;20.914;2024-03-06T13:20:32;101448.56;;;6.74;61.44
59417;BME280;45222;52.458;20.914;2024-03-06T13:24:19;101454.59;;;6.61;61.36
59417;BME280;45222;52.458;20.914;2024-03-06T13:28:06;101455.59;;;6.52;61.40
59417;BME280;45222;52.458;20.914;2024-03-06T13:31:54;101452.97;;;6.38;60.38
59417;BME280;45222;52.458;20.914;2024-03-06T13:35:43;101459.39;;;6.20;59.65
59417;BME280;45222;52.458;20.914;2024-03-06T13:39:30;101459.86;;;6.11;59.92
59417;BME280;45222;52.458;20.914;2024-03-06T13:43:17;101460.88;;;6.13;60.76
59417;BME280;45222;52.458;20.914;2024-03-06T13:47:14;101460.96;;;6.21;61.41
59417;BME280;45222;52.458;20.914;2024-03-06T13:51:01;101463.77;;;6.22;61.03
59417;BME280;45222;52.458;20.914;2024-03-06T13:54:48;101468.48;;;6.15;60.24
59417;BME280;45222;52.458;20.914;2024-03-06T13:58:36;101471.67;;;5.95;59.21
59417;BME280;45222;52.458;20.914;2024-03-06T14:02:24;101471.30;;;5.80;59.01
59417;BME280;45222;52.458;20.914;2024-03-06T14:06:12;101474.73;;;5.74;59.37
59417;BME280;45222;52.458;20.914;2024-03-06T14:09:59;101477.04;;;5.71;59.64
59417;BME280;45222;52.458;20.914;2024-03-06T14:13:48;101480.94;;;5.70;59.56
59417;BME280;45222;52.458;20.914;2024-03-06T14:17:33;101486.49;;;5.61;57.82
59417;BME280;45222;52.458;20.914;2024-03-06T14:21:19;101481.64;;;5.53;58.29
59417;BME280;45222;52.458;20.914;2024-03-06T14:25:10;101481.61;;;5.55;58.78
59417;BME280;45222;52.458;20.914;2024-03-06T14:28:57;101483.92;;;5.55;58.12
59417;BME280;45222;52.458;20.914;2024-03-06T14:32:43;101483.92;;;5.54;57.80
59417;BME280;45222;52.458;20.914;2024-03-06T14:36:31;101477.91;;;5.55;58.85
59417;BME280;45222;52.458;20.914;2024-03-06T14:40:18;101480.92;;;5.55;58.72
59417;BME280;45222;52.458;20.914;2024-03-06T14:44:06;101485.70;;;5.54;58.35
59417;BME280;45222;52.458;20.914;2024-03-06T14:47:52;101485.88;;;5.53;59.05
59417;BME280;45222;52.458;20.914;2024-03-06T14:51:40;101489.58;;;5.53;58.73
59417;BME280;45222;52.458;20.914;2024-03-06T14:55:27;101492.40;;;5.54;59.02
59417;BME280;45222;52.458;20.914;2024-03-06T14:59:14;101491.68;;;5.56;59.68
59417;BME280;45222;52.458;20.914;2024-03-06T15:03:00;101494.64;;;5.60;59.89
59417;BME280;45222;52.458;20.914;2024-03-06T15:06:50;101497.45;;;5.60;59.56
59417;BME280;45222;52.458;20.914;2024-03-06T15:10:38;101499.55;;;5.63;59.92
59417;BME280;45222;52.458;20.914;2024-03-06T15:14:24;101501.14;;;5.62;59.68
59417;BME280;45222;52.458;20.914;2024-03-06T15:18:12;101503.11;;;5.58;60.13
59417;BME280;45222;52.458;20.914;2024-03-06T15:22:08;101502.45;;;5.53;59.73
59417;BME280;45222;52.458;20.914;2024-03-06T15:25:56;101501.30;;;5.44;59.93
59417;BME280;45222;52.458;20.914;2024-03-06T15:29:43;101506.98;;;5.40;59.96
59417;BME280;45222;52.458;20.914;2024-03-06T15:33:30;101508.29;;;5.33;59.77
59417;BME280;45222;52.458;20.914;2024-03-06T15:37:16;101510.64;;;5.26;60.29
59417;BME280;45222;52.458;20.914;2024-03-06T15:41:03;101517.03;;;5.20;60.45
59417;BME280;45222;52.458;20.914;2024-03-06T15:44:54;101518.13;;;5.15;60.71
59417;BME280;45222;52.458;20.914;2024-03-06T15:48:42;101525.05;;;5.09;61.03
59417;BME280;45222;52.458;20.914;2024-03-06T15:52:29;101524.91;;;5.03;61.37
59417;BME280;45222;52.458;20.914;2024-03-06T15:56:16;101527.60;;;4.97;61.47
59417;BME280;45222;52.458;20.914;2024-03-06T16:00:06;101529.74;;;4.91;61.70
59417;BME280;45222;52.458;20.914;2024-03-06T16:03:55;101529.79;;;4.86;62.17
59417;BME280;45222;52.458;20.914;2024-03-06T16:07:43;101530.35;;;4.79;62.22
59417;BME280;45222;52.458;20.914;2024-03-06T16:11:29;101534.43;;;4.74;62.62
59417;BME280;45222;52.458;20.914;2024-03-06T16:15:17;101536.41;;;4.67;63.07
59417;BME280;45222;52.458;20.914;2024-03-06T16:19:03;101541.38;;;4.62;63.34
59417;BME280;45222;52.458;20.914;2024-03-06T16:22:50;101545.63;;;4.58;63.64
59417;BME280;45222;52.458;20.914;2024-03-06T16:26:37;101545.27;;;4.55;63.59
59417;BME280;45222;52.458;20.914;2024-03-06T16:30:24;101548.64;;;4.53;63.62
59417;BME280;45222;52.458;20.914;2024-03-06T16:34:10;101550.92;;;4.51;63.67
59417;BME280;45222;52.458;20.914;2024-03-06T16:37:57;101550.41;;;4.50;63.70
59417;BME280;45222;52.458;20.914;2024-03-06T16:41:45;101554.29;;;4.49;63.99
59417;BME280;45222;52.458;20.914;2024-03-06T16:45:32;101555.34;;;4.50;64.18
59417;BME280;45222;52.458;20.914;2024-03-06T16:49:18;101560.65;;;4.46;64.21
59417;BME280;45222;52.458;20.914;2024-03-06T16:53:07;101561.55;;;4.42;64.23
59417;BME280;45222;52.458;20.914;2024-03-06T16:56:53;101564.02;;;4.38;64.10
59417;BME280;45222;52.458;20.914;2024-03-06T17:00:40;101570.55;;;4.36;64.38
59417;BME280;45222;52.458;20.914;2024-03-06T17:04:27;101574.78;;;4.33;64.54
59417;BME280;45222;52.458;20.914;2024-03-06T17:08:15;101576.20;;;4.30;64.65
59417;BME280;45222;52.458;20.914;2024-03-06T17:12:03;101580.42;;;4.28;65.08
59417;BME280;45222;52.458;20.914;2024-03-06T17:15:51;101583.79;;;4.26;64.97
59417;BME280;45222;52.458;20.914;2024-03-06T17:19:40;101587.48;;;4.24;65.10
59417;BME280;45222;52.458;20.914;2024-03-06T17:23:30;101587.67;;;4.23;65.36
59417;BME280;45222;52.458;20.914;2024-03-06T17:27:18;101590.83;;;4.22;65.50
59417;BME280;45222;52.458;20.914;2024-03-06T17:31:06;101592.77;;;4.25;65.94
59417;BME280;45222;52.458;20.914;2024-03-06T17:34:54;101595.74;;;4.32;66.22
59417;BME280;45222;52.458;20.914;2024-03-06T17:38:42;101599.78;;;4.35;66.25
59417;BME280;45222;52.458;20.914;2024-03-06T17:42:32;101600.48;;;4.36;65.71
59417;BME280;45222;52.458;20.914;2024-03-06T17:46:20;101604.02;;;4.36;66.02
59417;BME280;45222;52.458;20.914;2024-03-06T17:50:09;101605.42;;;4.35;65.48
59417;BME280;45222;52.458;20.914;2024-03-06T17:54:00;101606.66;;;4.30;65.50
59417;BME280;45222;52.458;20.914;2024-03-06T17:57:47;101612.33;;;4.25;65.54
59417;BME280;45222;52.458;20.914;2024-03-06T18:01:35;101615.84;;;4.20;65.75
59417;BME280;45222;52.458;20.914;2024-03-06T18:05:23;101618.33;;;4.13;65.80
59417;BME280;45222;52.458;20.914;2024-03-06T18:09:11;101618.70;;;4.10;66.04
59417;BME280;45222;52.458;20.914;2024-03-06T18:13:01;101624.15;;;4.07;65.93
59417;BME280;45222;52.458;20.914;2024-03-06T18:16:49;101625.38;;;4.04;65.99
59417;BME280;45222;52.458;20.914;2024-03-06T18:20:37;101631.55;;;4.00;66.13
59417;BME280;45222;52.458;20.914;2024-03-06T18:24:25;101637.36;;;3.97;66.10
59417;BME280;45222;52.458;20.914;2024-03-06T18:28:12;101635.61;;;3.94;66.29
59417;BME280;45222;52.458;20.914;2024-03-06T18:32:00;101636.83;;;3.95;66.76
59417;BME280;45222;52.458;20.914;2024-03-06T18:35:48;101635.77;;;3.97;66.92
59417;BME280;45222;52.458;20.914;2024-03-06T18:39:35;101638.07;;;3.96;66.51
59417;BME280;45222;52.458;20.914;2024-03-06T18:43:23;101641.23;;;3.97;66.38
59417;BME280;45222;52.458;20.914;2024-03-06T18:47:11;101643.34;;;3.96;66.34
59417;BME280;45222;52.458;20.914;2024-03-06T18:50:59;101647.40;;;3.94;66.27
59417;BME280;45222;52.458;20.914;2024-03-06T18:54:46;101649.15;;;3.90;66.22
59417;BME280;45222;52.458;20.914;2024-03-06T18:58:35;101653.02;;;3.85;66.09
59417;BME280;45222;52.458;20.914;2024-03-06T19:02:23;101657.08;;;3.80;65.91
59417;BME280;45222;52.458;20.914;2024-03-06T19:06:12;101659.54;;;3.74;65.94
59417;BME280;45222;52.458;20.914;2024-03-06T19:10:00;101661.30;;;3.70;66.32
59417;BME280;45222;52.458;20.914;2024-03-06T19:13:53;101665.88;;;3.68;66.39
59417;BME280;45222;52.458;20.914;2024-03-06T19:17:41;101668.34;;;3.65;66.43
59417;BME280;45222;52.458;20.914;2024-03-06T19:21:29;101673.60;;;3.64;66.53
59417;BME280;45222;52.458;20.914;2024-03-06T19:25:17;101677.48;;;3.65;66.72
59417;BME280;45222;52.458;20.914;2024-03-06T19:29:05;101678.36;;;3.68;66.85
59417;BME280;45222;52.458;20.914;2024-03-06T19:32:53;101679.24;;;3.70;66.93
59417;BME280;45222;52.458;20.914;2024-03-06T19:36:40;101681.70;;;3.69;66.99
59417;BME280;45222;52.458;20.914;2024-03-06T19:40:28;101682.94;;;3.68;66.84
59417;BME280;45222;52.458;20.914;2024-03-06T19:44:17;101685.58;;;3.66;66.86
59417;BME280;45222;52.458;20.914;2024-03-06T19:48:07;101686.45;;;3.63;66.96
59417;BME280;45222;52.458;20.914;2024-03-06T19:51:53;101686.80;;;3.60;66.87
59417;BME280;45222;52.458;20.914;2024-03-06T19:55:42;101688.55;;;3.56;67.15